sensor_id;sensor_type;location;lat;lon;timestamp;P1;durP1;ratioP1;P2;durP2;ratioP2
4051;SDS011;2040;50.924;11.604;2023-09-18T00:00:27;6.23;;;4.40;;
4051;SDS011;2040;50.924;11.604;2023-09-18T00:02:53;6.50;;;4.60;;
4051;SDS011;2040;50.924;11.604;2023-09-18T00:05:19;8.27;;;4.10;;
4051;SDS011;2040;50.924;11.604;2023-09-18T00:07:44;5.37;;;4.30;;
4051;SDS011;2040;50.924;11.604;2023-09-18T00:10:10;10.20;;;5.10;;
4051;SDS011;2040;50.924;11.604;2023-09-18T00:12:37;6.37;;;4.87;;
4051;SDS011;2040;50.924;11.604;2023-09-18T00:15:03;6.20;;;4.00;;
4051;SDS011;2040;50.924;11.604;2023-09-18T00:17:29;9.57;;;4.63;;
4051;SDS011;2040;50.924;11.604;2023-09-18T00:19:55;6.90;;;4.30;;
4051;SDS011;2040;50.924;11.604;2023-09-18T00:22:20;14.70;;;4.47;;
4051;SDS011;2040;50.924;11.604;2023-09-18T00:24:46;9.10;;;5.33;;
4051;SDS011;2040;50.924;11.604;2023-09-18T00:27:12;8.30;;;4.37;;
4051;SDS011;2040;50.924;11.604;2023-09-18T00:29:38;7.77;;;5.03;;
4051;SDS011;2040;50.924;11.604;2023-09-18T00:32:04;10.73;;;4.07;;
4051;SDS011;2040;50.924;11.604;2023-09-18T00:34:31;5.07;;;4.13;;
4051;SDS011;2040;50.924;11.604;2023-09-18T00:36:59;5.80;;;4.67;;
4051;SDS011;2040;50.924;11.604;2023-09-18T00:39:25;6.73;;;4.40;;
4051;SDS011;2040;50.924;11.604;2023-09-18T00:41:51;5.47;;;4.10;;
4051;SDS011;2040;50.924;11.604;2023-09-18T00:44:19;12.03;;;4.40;;
4051;SDS011;2040;50.924;11.604;2023-09-18T00:46:46;4.77;;;3.73;;
4051;SDS011;2040;50.924;11.604;2023-09-18T00:49:12;5.40;;;4.50;;
4051;SDS011;2040;50.924;11.604;2023-09-18T00:51:39;7.90;;;3.97;;
4051;SDS011;2040;50.924;11.604;2023-09-18T00:54:05;5.83;;;4.47;;
4051;SDS011;2040;50.924;11.604;2023-09-18T00:56:32;7.87;;;4.97;;
4051;SDS011;2040;50.924;11.604;2023-09-18T00:58:59;7.20;;;5.10;;
4051;SDS011;2040;50.924;11.604;2023-09-18T01:01:25;6.47;;;4.50;;
4051;SDS011;2040;50.924;11.604;2023-09-18T01:03:50;6.57;;;4.40;;
4051;SDS011;2040;50.924;11.604;2023-09-18T01:06:18;9.20;;;4.40;;
4051;SDS011;2040;50.924;11.604;2023-09-18T01:08:45;7.93;;;4.93;;
4051;SDS011;2040;50.924;11.604;2023-09-18T01:16:44;12.10;;;5.00;;
4051;SDS011;2040;50.924;11.604;2023-09-18T01:19:45;6.10;;;4.70;;
4051;SDS011;2040;50.924;11.604;2023-09-18T01:22:12;7.70;;;4.90;;
4051;SDS011;2040;50.924;11.604;2023-09-18T01:24:39;7.10;;;4.70;;
4051;SDS011;2040;50.924;11.604;2023-09-18T01:27:08;6.93;;;3.87;;
4051;SDS011;2040;50.924;11.604;2023-09-18T01:29:35;7.03;;;4.20;;
4051;SDS011;2040;50.924;11.604;2023-09-18T01:32:01;8.00;;;5.00;;
4051;SDS011;2040;50.924;11.604;2023-09-18T01:34:34;13.50;;;4.90;;
4051;SDS011;2040;50.924;11.604;2023-09-18T01:37:02;5.90;;;4.90;;
4051;SDS011;2040;50.924;11.604;2023-09-18T01:39:30;6.60;;;4.67;;
4051;SDS011;2040;50.924;11.604;2023-09-18T01:41:58;6.63;;;4.13;;
4051;SDS011;2040;50.924;11.604;2023-09-18T01:44:26;6.47;;;4.37;;
4051;SDS011;2040;50.924;11.604;2023-09-18T01:46:53;10.43;;;5.50;;
4051;SDS011;2040;50.924;11.604;2023-09-18T01:49:32;6.43;;;4.80;;
4051;SDS011;2040;50.924;11.604;2023-09-18T01:52:02;10.70;;;4.60;;
4051;SDS011;2040;50.924;11.604;2023-09-18T01:54:47;6.40;;;4.77;;
4051;SDS011;2040;50.924;11.604;2023-09-18T01:57:13;7.20;;;4.97;;
4051;SDS011;2040;50.924;11.604;2023-09-18T01:59:39;7.40;;;4.90;;
4051;SDS011;2040;50.924;11.604;2023-09-18T02:02:06;6.90;;;4.23;;
4051;SDS011;2040;50.924;11.604;2023-09-18T02:04:34;7.20;;;4.40;;
4051;SDS011;2040;50.924;11.604;2023-09-18T02:07:00;6.83;;;4.83;;
4051;SDS011;2040;50.924;11.604;2023-09-18T02:09:25;7.70;;;4.70;;
4051;SDS011;2040;50.924;11.604;2023-09-18T02:11:51;7.07;;;5.27;;
4051;SDS011;2040;50.924;11.604;2023-09-18T02:14:16;10.27;;;4.80;;
4051;SDS011;2040;50.924;11.604;2023-09-18T02:16:42;9.33;;;4.40;;
4051;SDS011;2040;50.924;11.604;2023-09-18T02:19:09;5.40;;;4.43;;
4051;SDS011;2040;50.924;11.604;2023-09-18T02:21:35;9.07;;;5.40;;
4051;SDS011;2040;50.924;11.604;2023-09-18T02:24:01;8.20;;;5.57;;
4051;SDS011;2040;50.924;11.604;2023-09-18T02:26:27;5.97;;;4.53;;
4051;SDS011;2040;50.924;11.604;2023-09-18T02:28:53;9.13;;;5.40;;
4051;SDS011;2040;50.924;11.604;2023-09-18T02:31:20;6.23;;;4.30;;
4051;SDS011;2040;50.924;11.604;2023-09-18T02:33:46;8.70;;;5.40;;
4051;SDS011;2040;50.924;11.604;2023-09-18T02:36:12;8.43;;;4.43;;
4051;SDS011;2040;50.924;11.604;2023-09-18T02:38:38;7.13;;;5.10;;
4051;SDS011;2040;50.924;11.604;2023-09-18T02:41:04;9.30;;;4.63;;
4051;SDS011;2040;50.924;11.604;2023-09-18T02:43:29;9.40;;;5.10;;
4051;SDS011;2040;50.924;11.604;2023-09-18T02:45:55;7.77;;;5.03;;
4051;SDS011;2040;50.924;11.604;2023-09-18T02:48:20;6.80;;;4.80;;
4051;SDS011;2040;50.924;11.604;2023-09-18T02:50:46;9.77;;;4.40;;
4051;SDS011;2040;50.924;11.604;2023-09-18T02:53:21;11.60;;;5.77;;
4051;SDS011;2040;50.924;11.604;2023-09-18T02:55:48;8.83;;;4.83;;
4051;SDS011;2040;50.924;11.604;2023-09-18T02:58:15;8.20;;;5.50;;
4051;SDS011;2040;50.924;11.604;2023-09-18T03:00:50;12.70;;;5.70;;
4051;SDS011;2040;50.924;11.604;2023-09-18T03:03:16;6.97;;;4.90;;
4051;SDS011;2040;50.924;11.604;2023-09-18T03:05:42;12.30;;;4.67;;
4051;SDS011;2040;50.924;11.604;2023-09-18T03:08:09;7.33;;;4.90;;
4051;SDS011;2040;50.924;11.604;2023-09-18T03:10:39;7.27;;;4.87;;
4051;SDS011;2040;50.924;11.604;2023-09-18T03:13:07;5.37;;;4.53;;
4051;SDS011;2040;50.924;11.604;2023-09-18T03:15:34;8.27;;;4.40;;
4051;SDS011;2040;50.924;11.604;2023-09-18T03:18:00;7.40;;;4.60;;
4051;SDS011;2040;50.924;11.604;2023-09-18T03:20:27;8.60;;;5.03;;
4051;SDS011;2040;50.924;11.604;2023-09-18T03:22:55;7.17;;;4.83;;
4051;SDS011;2040;50.924;11.604;2023-09-18T03:25:22;7.00;;;4.67;;
4051;SDS011;2040;50.924;11.604;2023-09-18T03:27:48;11.43;;;5.47;;
4051;SDS011;2040;50.924;11.604;2023-09-18T03:30:15;8.20;;;5.50;;
4051;SDS011;2040;50.924;11.604;2023-09-18T03:32:41;7.17;;;4.80;;
4051;SDS011;2040;50.924;11.604;2023-09-18T03:35:08;5.70;;;4.50;;
4051;SDS011;2040;50.924;11.604;2023-09-18T03:37:40;7.57;;;4.40;;
4051;SDS011;2040;50.924;11.604;2023-09-18T03:40:07;7.07;;;5.00;;
4051;SDS011;2040;50.924;11.604;2023-09-18T03:42:36;7.93;;;5.30;;
4051;SDS011;2040;50.924;11.604;2023-09-18T03:45:01;7.00;;;4.77;;
4051;SDS011;2040;50.924;11.604;2023-09-18T03:47:28;6.93;;;4.70;;
4051;SDS011;2040;50.924;11.604;2023-09-18T03:49:53;7.87;;;4.27;;
4051;SDS011;2040;50.924;11.604;2023-09-18T03:52:19;6.20;;;4.07;;
4051;SDS011;2040;50.924;11.604;2023-09-18T03:54:45;8.53;;;4.67;;
4051;SDS011;2040;50.924;11.604;2023-09-18T03:57:10;6.33;;;4.33;;
4051;SDS011;2040;50.924;11.604;2023-09-18T03:59:36;10.13;;;4.30;;
4051;SDS011;2040;50.924;11.604;2023-09-18T04:02:01;6.33;;;4.70;;
4051;SDS011;2040;50.924;11.604;2023-09-18T04:04:28;8.50;;;5.70;;
4051;SDS011;2040;50.924;11.604;2023-09-18T04:06:54;8.43;;;5.40;;
4051;SDS011;2040;50.924;11.604;2023-09-18T04:09:19;6.77;;;4.60;;
4051;SDS011;2040;50.924;11.604;2023-09-18T04:11:45;6.57;;;4.77;;
4051;SDS011;2040;50.924;11.604;2023-09-18T04:14:10;9.87;;;5.73;;
4051;SDS011;2040;50.924;11.604;2023-09-18T04:16:36;6.83;;;4.70;;
4051;SDS011;2040;50.924;11.604;2023-09-18T04:19:02;9.37;;;4.80;;
4051;SDS011;2040;50.924;11.604;2023-09-18T04:21:28;10.43;;;5.70;;
4051;SDS011;2040;50.924;11.604;2023-09-18T04:23:54;6.40;;;4.70;;
4051;SDS011;2040;50.924;11.604;2023-09-18T04:26:25;9.10;;;6.00;;
4051;SDS011;2040;50.924;11.604;2023-09-18T04:28:55;7.27;;;5.37;;
4051;SDS011;2040;50.924;11.604;2023-09-18T04:31:21;8.63;;;5.27;;
4051;SDS011;2040;50.924;11.604;2023-09-18T04:33:46;11.20;;;5.17;;
4051;SDS011;2040;50.924;11.604;2023-09-18T04:36:12;7.77;;;5.63;;
4051;SDS011;2040;50.924;11.604;2023-09-18T04:38:38;7.90;;;5.40;;
4051;SDS011;2040;50.924;11.604;2023-09-18T04:41:03;5.80;;;4.23;;
4051;SDS011;2040;50.924;11.604;2023-09-18T04:43:29;8.87;;;4.97;;
4051;SDS011;2040;50.924;11.604;2023-09-18T04:45:55;9.50;;;4.40;;
4051;SDS011;2040;50.924;11.604;2023-09-18T04:48:21;6.63;;;4.97;;
4051;SDS011;2040;50.924;11.604;2023-09-18T04:50:46;12.33;;;4.60;;
4051;SDS011;2040;50.924;11.604;2023-09-18T04:53:13;7.17;;;4.87;;
4051;SDS011;2040;50.924;11.604;2023-09-18T04:55:39;12.80;;;5.57;;
4051;SDS011;2040;50.924;11.604;2023-09-18T04:58:04;9.40;;;5.20;;
4051;SDS011;2040;50.924;11.604;2023-09-18T05:00:31;7.50;;;5.40;;
4051;SDS011;2040;50.924;11.604;2023-09-18T05:02:58;8.90;;;5.30;;
4051;SDS011;2040;50.924;11.604;2023-09-18T05:05:26;13.93;;;4.73;;
4051;SDS011;2040;50.924;11.604;2023-09-18T05:07:52;7.23;;;4.77;;
4051;SDS011;2040;50.924;11.604;2023-09-18T05:10:17;10.13;;;5.50;;
4051;SDS011;2040;50.924;11.604;2023-09-18T05:12:43;8.20;;;5.00;;
4051;SDS011;2040;50.924;11.604;2023-09-18T05:15:09;7.80;;;4.93;;
4051;SDS011;2040;50.924;11.604;2023-09-18T05:17:44;8.50;;;5.80;;
4051;SDS011;2040;50.924;11.604;2023-09-18T05:20:12;8.30;;;5.33;;
4051;SDS011;2040;50.924;11.604;2023-09-18T05:22:40;8.87;;;4.93;;
4051;SDS011;2040;50.924;11.604;2023-09-18T05:25:07;10.50;;;6.23;;
4051;SDS011;2040;50.924;11.604;2023-09-18T05:27:36;6.37;;;5.37;;
4051;SDS011;2040;50.924;11.604;2023-09-18T05:30:19;9.73;;;5.50;;
4051;SDS011;2040;50.924;11.604;2023-09-18T05:32:46;7.90;;;5.17;;
4051;SDS011;2040;50.924;11.604;2023-09-18T05:35:13;9.20;;;5.53;;
4051;SDS011;2040;50.924;11.604;2023-09-18T05:37:39;9.80;;;5.20;;
4051;SDS011;2040;50.924;11.604;2023-09-18T05:40:06;12.93;;;5.87;;
4051;SDS011;2040;50.924;11.604;2023-09-18T05:42:35;8.60;;;4.70;;
4051;SDS011;2040;50.924;11.604;2023-09-18T05:45:01;8.80;;;5.87;;
4051;SDS011;2040;50.924;11.604;2023-09-18T05:47:29;8.07;;;5.50;;
4051;SDS011;2040;50.924;11.604;2023-09-18T05:49:58;8.20;;;4.90;;
4051;SDS011;2040;50.924;11.604;2023-09-18T05:52:23;11.53;;;5.33;;
4051;SDS011;2040;50.924;11.604;2023-09-18T05:54:50;6.83;;;4.30;;
4051;SDS011;2040;50.924;11.604;2023-09-18T05:57:16;5.80;;;4.90;;
4051;SDS011;2040;50.924;11.604;2023-09-18T05:59:42;9.70;;;5.27;;
4051;SDS011;2040;50.924;11.604;2023-09-18T06:02:10;8.27;;;5.03;;
4051;SDS011;2040;50.924;11.604;2023-09-18T06:04:36;8.40;;;4.60;;
4051;SDS011;2040;50.924;11.604;2023-09-18T06:07:05;9.37;;;4.70;;
4051;SDS011;2040;50.924;11.604;2023-09-18T06:09:30;9.63;;;5.83;;
4051;SDS011;2040;50.924;11.604;2023-09-18T06:11:56;7.17;;;5.03;;
4051;SDS011;2040;50.924;11.604;2023-09-18T06:14:22;7.80;;;4.60;;
4051;SDS011;2040;50.924;11.604;2023-09-18T06:16:48;8.90;;;5.80;;
4051;SDS011;2040;50.924;11.604;2023-09-18T06:19:14;7.73;;;4.00;;
4051;SDS011;2040;50.924;11.604;2023-09-18T06:21:42;6.20;;;4.37;;
4051;SDS011;2040;50.924;11.604;2023-09-18T06:24:09;7.90;;;4.73;;
4051;SDS011;2040;50.924;11.604;2023-09-18T06:26:34;7.80;;;5.00;;
4051;SDS011;2040;50.924;11.604;2023-09-18T06:29:00;10.57;;;5.10;;
4051;SDS011;2040;50.924;11.604;2023-09-18T06:31:27;9.73;;;4.63;;
4051;SDS011;2040;50.924;11.604;2023-09-18T06:33:53;7.20;;;4.93;;
4051;SDS011;2040;50.924;11.604;2023-09-18T06:36:18;7.73;;;5.63;;
4051;SDS011;2040;50.924;11.604;2023-09-18T06:38:44;6.33;;;4.80;;
4051;SDS011;2040;50.924;11.604;2023-09-18T06:41:10;7.93;;;4.30;;
4051;SDS011;2040;50.924;11.604;2023-09-18T06:43:35;5.37;;;3.90;;
4051;SDS011;2040;50.924;11.604;2023-09-18T06:46:01;4.73;;;3.60;;
4051;SDS011;2040;50.924;11.604;2023-09-18T06:48:26;6.30;;;4.17;;
4051;SDS011;2040;50.924;11.604;2023-09-18T06:50:57;6.53;;;4.10;;
4051;SDS011;2040;50.924;11.604;2023-09-18T06:53:23;7.60;;;3.80;;
4051;SDS011;2040;50.924;11.604;2023-09-18T06:55:48;5.60;;;3.30;;
4051;SDS011;2040;50.924;11.604;2023-09-18T06:58:14;4.53;;;3.93;;
4051;SDS011;2040;50.924;11.604;2023-09-18T07:00:40;7.20;;;3.63;;
4051;SDS011;2040;50.924;11.604;2023-09-18T07:03:05;12.57;;;4.37;;
4051;SDS011;2040;50.924;11.604;2023-09-18T07:05:31;10.00;;;4.00;;
4051;SDS011;2040;50.924;11.604;2023-09-18T07:07:57;7.80;;;4.10;;
4051;SDS011;2040;50.924;11.604;2023-09-18T07:10:22;5.63;;;3.80;;
4051;SDS011;2040;50.924;11.604;2023-09-18T07:12:48;6.13;;;3.90;;
4051;SDS011;2040;50.924;11.604;2023-09-18T07:15:14;7.47;;;4.27;;
4051;SDS011;2040;50.924;11.604;2023-09-18T07:17:40;7.40;;;4.17;;
4051;SDS011;2040;50.924;11.604;2023-09-18T07:20:05;10.57;;;3.80;;
4051;SDS011;2040;50.924;11.604;2023-09-18T07:22:38;5.30;;;4.07;;
4051;SDS011;2040;50.924;11.604;2023-09-18T07:25:05;5.73;;;4.00;;
4051;SDS011;2040;50.924;11.604;2023-09-18T07:27:31;8.83;;;3.60;;
4051;SDS011;2040;50.924;11.604;2023-09-18T07:29:57;3.97;;;3.20;;
4051;SDS011;2040;50.924;11.604;2023-09-18T07:32:23;4.77;;;3.47;;
4051;SDS011;2040;50.924;11.604;2023-09-18T07:34:51;8.53;;;3.50;;
4051;SDS011;2040;50.924;11.604;2023-09-18T07:37:17;18.20;;;4.90;;
4051;SDS011;2040;50.924;11.604;2023-09-18T07:39:46;9.90;;;3.30;;
4051;SDS011;2040;50.924;11.604;2023-09-18T07:42:11;3.60;;;3.03;;
4051;SDS011;2040;50.924;11.604;2023-09-18T07:44:37;3.03;;;2.73;;
4051;SDS011;2040;50.924;11.604;2023-09-18T07:47:03;6.60;;;3.50;;
4051;SDS011;2040;50.924;11.604;2023-09-18T07:49:28;13.10;;;3.47;;
4051;SDS011;2040;50.924;11.604;2023-09-18T07:51:54;4.87;;;3.40;;
4051;SDS011;2040;50.924;11.604;2023-09-18T07:54:20;4.77;;;3.30;;
4051;SDS011;2040;50.924;11.604;2023-09-18T07:56:46;3.50;;;2.60;;
4051;SDS011;2040;50.924;11.604;2023-09-18T07:59:11;4.63;;;2.90;;
4051;SDS011;2040;50.924;11.604;2023-09-18T08:01:39;4.23;;;3.20;;
4051;SDS011;2040;50.924;11.604;2023-09-18T08:04:05;3.77;;;3.37;;
4051;SDS011;2040;50.924;11.604;2023-09-18T08:06:31;6.47;;;3.37;;
4051;SDS011;2040;50.924;11.604;2023-09-18T08:08:57;4.73;;;3.37;;
4051;SDS011;2040;50.924;11.604;2023-09-18T08:11:23;7.00;;;3.23;;
4051;SDS011;2040;50.924;11.604;2023-09-18T08:13:48;4.57;;;3.40;;
4051;SDS011;2040;50.924;11.604;2023-09-18T08:16:14;4.93;;;3.70;;
4051;SDS011;2040;50.924;11.604;2023-09-18T08:18:40;4.67;;;3.50;;
4051;SDS011;2040;50.924;11.604;2023-09-18T08:21:06;4.40;;;3.30;;
4051;SDS011;2040;50.924;11.604;2023-09-18T08:23:34;7.13;;;3.53;;
4051;SDS011;2040;50.924;11.604;2023-09-18T08:26:01;14.00;;;3.73;;
4051;SDS011;2040;50.924;11.604;2023-09-18T08:28:28;5.77;;;3.10;;
4051;SDS011;2040;50.924;11.604;2023-09-18T08:30:54;3.60;;;2.70;;
4051;SDS011;2040;50.924;11.604;2023-09-18T08:33:20;4.50;;;3.10;;
4051;SDS011;2040;50.924;11.604;2023-09-18T08:35:46;4.13;;;3.27;;
4051;SDS011;2040;50.924;11.604;2023-09-18T08:38:12;3.47;;;2.87;;
4051;SDS011;2040;50.924;11.604;2023-09-18T08:40:40;7.67;;;3.50;;
4051;SDS011;2040;50.924;11.604;2023-09-18T08:43:07;5.30;;;3.30;;
4051;SDS011;2040;50.924;11.604;2023-09-18T08:48:21;4.97;;;3.00;;
4051;SDS011;2040;50.924;11.604;2023-09-18T08:50:47;3.53;;;2.93;;
4051;SDS011;2040;50.924;11.604;2023-09-18T08:53:13;8.10;;;3.50;;
4051;SDS011;2040;50.924;11.604;2023-09-18T08:55:40;4.07;;;3.07;;
4051;SDS011;2040;50.924;11.604;2023-09-18T08:58:06;5.03;;;3.40;;
4051;SDS011;2040;50.924;11.604;2023-09-18T09:00:33;6.63;;;3.80;;
4051;SDS011;2040;50.924;11.604;2023-09-18T09:03:00;14.60;;;5.13;;
4051;SDS011;2040;50.924;11.604;2023-09-18T09:05:26;3.67;;;2.90;;
4051;SDS011;2040;50.924;11.604;2023-09-18T09:07:52;7.13;;;3.30;;
4051;SDS011;2040;50.924;11.604;2023-09-18T09:10:18;4.13;;;3.60;;
4051;SDS011;2040;50.924;11.604;2023-09-18T09:12:51;5.97;;;3.17;;
4051;SDS011;2040;50.924;11.604;2023-09-18T09:15:19;8.27;;;3.80;;
4051;SDS011;2040;50.924;11.604;2023-09-18T09:17:46;5.87;;;3.40;;
4051;SDS011;2040;50.924;11.604;2023-09-18T09:20:12;4.70;;;3.50;;
4051;SDS011;2040;50.924;11.604;2023-09-18T09:22:39;4.33;;;3.40;;
4051;SDS011;2040;50.924;11.604;2023-09-18T09:25:28;10.80;;;3.00;;
4051;SDS011;2040;50.924;11.604;2023-09-18T09:28:00;5.70;;;3.17;;
4051;SDS011;2040;50.924;11.604;2023-09-18T09:30:28;4.03;;;3.20;;
4051;SDS011;2040;50.924;11.604;2023-09-18T09:32:55;6.07;;;3.37;;
4051;SDS011;2040;50.924;11.604;2023-09-18T09:35:25;6.67;;;3.50;;
4051;SDS011;2040;50.924;11.604;2023-09-18T09:37:53;6.97;;;3.67;;
4051;SDS011;2040;50.924;11.604;2023-09-18T09:40:24;5.57;;;3.33;;
4051;SDS011;2040;50.924;11.604;2023-09-18T09:42:51;11.03;;;3.80;;
4051;SDS011;2040;50.924;11.604;2023-09-18T09:45:25;5.57;;;3.30;;
4051;SDS011;2040;50.924;11.604;2023-09-18T09:47:54;6.70;;;3.87;;
4051;SDS011;2040;50.924;11.604;2023-09-18T09:50:20;9.87;;;4.27;;
4051;SDS011;2040;50.924;11.604;2023-09-18T09:52:47;8.27;;;3.63;;
4051;SDS011;2040;50.924;11.604;2023-09-18T09:55:25;6.60;;;3.50;;
4051;SDS011;2040;50.924;11.604;2023-09-18T09:58:00;6.37;;;3.37;;
4051;SDS011;2040;50.924;11.604;2023-09-18T10:03:01;8.47;;;4.03;;
4051;SDS011;2040;50.924;11.604;2023-09-18T10:05:30;9.53;;;3.87;;
4051;SDS011;2040;50.924;11.604;2023-09-18T10:07:58;6.97;;;3.70;;
4051;SDS011;2040;50.924;11.604;2023-09-18T10:10:27;6.50;;;3.23;;
4051;SDS011;2040;50.924;11.604;2023-09-18T10:12:57;7.87;;;3.73;;
4051;SDS011;2040;50.924;11.604;2023-09-18T10:15:31;14.43;;;3.40;;
4051;SDS011;2040;50.924;11.604;2023-09-18T10:17:58;11.23;;;4.33;;
4051;SDS011;2040;50.924;11.604;2023-09-18T10:20:27;5.30;;;3.73;;
4051;SDS011;2040;50.924;11.604;2023-09-18T10:22:56;4.77;;;3.50;;
4051;SDS011;2040;50.924;11.604;2023-09-18T10:25:28;9.80;;;4.80;;
4051;SDS011;2040;50.924;11.604;2023-09-18T10:27:56;7.83;;;4.10;;
4051;SDS011;2040;50.924;11.604;2023-09-18T10:30:27;7.43;;;4.07;;
4051;SDS011;2040;50.924;11.604;2023-09-18T10:32:54;5.77;;;3.90;;
4051;SDS011;2040;50.924;11.604;2023-09-18T10:35:22;9.03;;;3.60;;
4051;SDS011;2040;50.924;11.604;2023-09-18T10:37:48;10.03;;;3.50;;
4051;SDS011;2040;50.924;11.604;2023-09-18T10:40:19;10.50;;;3.60;;
4051;SDS011;2040;50.924;11.604;2023-09-18T10:42:46;7.23;;;3.27;;
4051;SDS011;2040;50.924;11.604;2023-09-18T10:45:15;8.80;;;3.90;;
4051;SDS011;2040;50.924;11.604;2023-09-18T10:47:42;6.93;;;3.80;;
4051;SDS011;2040;50.924;11.604;2023-09-18T10:50:14;6.00;;;3.77;;
4051;SDS011;2040;50.924;11.604;2023-09-18T10:52:50;6.50;;;3.77;;
4051;SDS011;2040;50.924;11.604;2023-09-18T10:55:16;6.70;;;3.83;;
4051;SDS011;2040;50.924;11.604;2023-09-18T10:57:58;10.77;;;3.37;;
4051;SDS011;2040;50.924;11.604;2023-09-18T11:00:24;4.20;;;3.50;;
4051;SDS011;2040;50.924;11.604;2023-09-18T11:02:52;4.27;;;3.23;;
4051;SDS011;2040;50.924;11.604;2023-09-18T11:05:34;7.03;;;3.43;;
4051;SDS011;2040;50.924;11.604;2023-09-18T11:11:12;8.03;;;3.07;;
4051;SDS011;2040;50.924;11.604;2023-09-18T11:21:28;4.10;;;2.53;;
4051;SDS011;2040;50.924;11.604;2023-09-18T11:26:28;3.73;;;2.43;;
4051;SDS011;2040;50.924;11.604;2023-09-18T11:31:43;5.07;;;2.47;;
4051;SDS011;2040;50.924;11.604;2023-09-18T11:34:19;4.63;;;3.10;;
4051;SDS011;2040;50.924;11.604;2023-09-18T11:36:51;3.30;;;2.70;;
4051;SDS011;2040;50.924;11.604;2023-09-18T11:39:33;10.03;;;2.90;;
4051;SDS011;2040;50.924;11.604;2023-09-18T11:42:06;4.67;;;2.93;;
4051;SDS011;2040;50.924;11.604;2023-09-18T11:44:32;15.03;;;3.30;;
4051;SDS011;2040;50.924;11.604;2023-09-18T11:46:58;10.73;;;2.60;;
4051;SDS011;2040;50.924;11.604;2023-09-18T11:49:25;4.97;;;2.63;;
4051;SDS011;2040;50.924;11.604;2023-09-18T11:51:52;3.93;;;2.93;;
4051;SDS011;2040;50.924;11.604;2023-09-18T11:54:18;6.73;;;2.83;;
4051;SDS011;2040;50.924;11.604;2023-09-18T11:56:44;5.90;;;2.30;;
4051;SDS011;2040;50.924;11.604;2023-09-18T11:59:10;5.17;;;2.73;;
4051;SDS011;2040;50.924;11.604;2023-09-18T12:01:37;4.43;;;2.00;;
4051;SDS011;2040;50.924;11.604;2023-09-18T12:04:05;5.80;;;3.03;;
4051;SDS011;2040;50.924;11.604;2023-09-18T12:06:35;4.10;;;2.20;;
4051;SDS011;2040;50.924;11.604;2023-09-18T12:09:01;6.23;;;2.93;;
4051;SDS011;2040;50.924;11.604;2023-09-18T12:11:28;8.27;;;2.80;;
4051;SDS011;2040;50.924;11.604;2023-09-18T12:13:55;3.93;;;2.70;;
4051;SDS011;2040;50.924;11.604;2023-09-18T12:16:20;9.27;;;3.50;;
4051;SDS011;2040;50.924;11.604;2023-09-18T12:18:47;6.27;;;3.47;;
4051;SDS011;2040;50.924;11.604;2023-09-18T12:21:14;7.03;;;2.77;;
4051;SDS011;2040;50.924;11.604;2023-09-18T12:23:42;4.73;;;2.53;;
4051;SDS011;2040;50.924;11.604;2023-09-18T12:26:10;6.10;;;2.37;;
4051;SDS011;2040;50.924;11.604;2023-09-18T12:28:38;6.63;;;3.37;;
4051;SDS011;2040;50.924;11.604;2023-09-18T12:31:14;6.03;;;2.60;;
4051;SDS011;2040;50.924;11.604;2023-09-18T12:33:41;14.53;;;2.93;;
4051;SDS011;2040;50.924;11.604;2023-09-18T12:36:09;11.57;;;2.67;;
4051;SDS011;2040;50.924;11.604;2023-09-18T12:38:35;3.93;;;2.53;;
4051;SDS011;2040;50.924;11.604;2023-09-18T12:41:03;4.30;;;2.40;;
4051;SDS011;2040;50.924;11.604;2023-09-18T12:43:37;3.60;;;1.93;;
4051;SDS011;2040;50.924;11.604;2023-09-18T12:46:04;6.37;;;2.40;;
4051;SDS011;2040;50.924;11.604;2023-09-18T12:48:31;3.80;;;2.27;;
4051;SDS011;2040;50.924;11.604;2023-09-18T12:51:06;5.10;;;2.40;;
4051;SDS011;2040;50.924;11.604;2023-09-18T12:53:32;7.80;;;3.00;;
4051;SDS011;2040;50.924;11.604;2023-09-18T12:56:05;5.27;;;2.80;;
4051;SDS011;2040;50.924;11.604;2023-09-18T12:58:38;5.00;;;2.50;;
4051;SDS011;2040;50.924;11.604;2023-09-18T13:01:10;4.57;;;3.03;;
4051;SDS011;2040;50.924;11.604;2023-09-18T13:03:43;12.67;;;4.00;;
4051;SDS011;2040;50.924;11.604;2023-09-18T13:06:11;6.33;;;3.70;;
4051;SDS011;2040;50.924;11.604;2023-09-18T13:08:44;3.73;;;2.50;;
4051;SDS011;2040;50.924;11.604;2023-09-18T13:11:10;3.30;;;2.40;;
4051;SDS011;2040;50.924;11.604;2023-09-18T13:13:42;3.60;;;2.23;;
4051;SDS011;2040;50.924;11.604;2023-09-18T13:16:10;4.13;;;2.40;;
4051;SDS011;2040;50.924;11.604;2023-09-18T13:18:37;4.30;;;2.40;;
4051;SDS011;2040;50.924;11.604;2023-09-18T13:21:11;5.00;;;2.30;;
4051;SDS011;2040;50.924;11.604;2023-09-18T13:23:39;8.00;;;3.00;;
4051;SDS011;2040;50.924;11.604;2023-09-18T13:26:05;2.27;;;1.80;;
4051;SDS011;2040;50.924;11.604;2023-09-18T13:28:33;3.67;;;2.40;;
4051;SDS011;2040;50.924;11.604;2023-09-18T13:31:01;11.43;;;2.63;;
4051;SDS011;2040;50.924;11.604;2023-09-18T13:33:30;2.87;;;2.37;;
4051;SDS011;2040;50.924;11.604;2023-09-18T13:35:57;4.40;;;2.50;;
4051;SDS011;2040;50.924;11.604;2023-09-18T13:38:24;5.07;;;2.50;;
4051;SDS011;2040;50.924;11.604;2023-09-18T13:40:51;12.50;;;3.17;;
4051;SDS011;2040;50.924;11.604;2023-09-18T13:43:19;4.70;;;2.53;;
4051;SDS011;2040;50.924;11.604;2023-09-18T13:45:47;2.70;;;1.90;;
4051;SDS011;2040;50.924;11.604;2023-09-18T13:48:16;7.57;;;2.40;;
4051;SDS011;2040;50.924;11.604;2023-09-18T13:50:42;3.40;;;2.23;;
4051;SDS011;2040;50.924;11.604;2023-09-18T13:53:08;2.20;;;1.97;;
4051;SDS011;2040;50.924;11.604;2023-09-18T13:55:34;13.00;;;2.90;;
4051;SDS011;2040;50.924;11.604;2023-09-18T13:58:00;8.47;;;2.80;;
4051;SDS011;2040;50.924;11.604;2023-09-18T14:00:28;3.37;;;1.97;;
4051;SDS011;2040;50.924;11.604;2023-09-18T14:02:54;5.37;;;2.00;;
4051;SDS011;2040;50.924;11.604;2023-09-18T14:05:19;4.90;;;2.17;;
4051;SDS011;2040;50.924;11.604;2023-09-18T14:07:45;4.03;;;2.10;;
4051;SDS011;2040;50.924;11.604;2023-09-18T14:10:10;3.50;;;1.80;;
4051;SDS011;2040;50.924;11.604;2023-09-18T14:12:39;2.93;;;2.30;;
4051;SDS011;2040;50.924;11.604;2023-09-18T14:15:07;4.13;;;2.50;;
4051;SDS011;2040;50.924;11.604;2023-09-18T14:17:33;14.30;;;2.80;;
4051;SDS011;2040;50.924;11.604;2023-09-18T14:20:03;4.20;;;1.83;;
4051;SDS011;2040;50.924;11.604;2023-09-18T14:22:35;3.47;;;2.07;;
4051;SDS011;2040;50.924;11.604;2023-09-18T14:25:01;2.60;;;1.93;;
4051;SDS011;2040;50.924;11.604;2023-09-18T14:27:30;3.00;;;2.00;;
4051;SDS011;2040;50.924;11.604;2023-09-18T14:29:56;4.10;;;2.10;;
4051;SDS011;2040;50.924;11.604;2023-09-18T14:32:21;6.70;;;2.10;;
4051;SDS011;2040;50.924;11.604;2023-09-18T14:34:47;4.07;;;2.00;;
4051;SDS011;2040;50.924;11.604;2023-09-18T14:37:13;5.17;;;2.00;;
4051;SDS011;2040;50.924;11.604;2023-09-18T14:39:39;3.80;;;1.70;;
4051;SDS011;2040;50.924;11.604;2023-09-18T14:42:04;2.00;;;1.73;;
4051;SDS011;2040;50.924;11.604;2023-09-18T14:44:30;4.53;;;1.70;;
4051;SDS011;2040;50.924;11.604;2023-09-18T14:46:56;4.47;;;1.90;;
4051;SDS011;2040;50.924;11.604;2023-09-18T14:49:21;10.17;;;2.10;;
4051;SDS011;2040;50.924;11.604;2023-09-18T14:51:47;4.10;;;2.00;;
4051;SDS011;2040;50.924;11.604;2023-09-18T14:54:15;5.57;;;1.50;;
4051;SDS011;2040;50.924;11.604;2023-09-18T14:56:41;8.07;;;2.20;;
4051;SDS011;2040;50.924;11.604;2023-09-18T14:59:06;4.47;;;1.90;;
4051;SDS011;2040;50.924;11.604;2023-09-18T15:01:34;4.77;;;1.93;;
4051;SDS011;2040;50.924;11.604;2023-09-18T15:04:00;3.50;;;1.53;;
4051;SDS011;2040;50.924;11.604;2023-09-18T15:06:26;7.20;;;1.80;;
4051;SDS011;2040;50.924;11.604;2023-09-18T15:08:52;4.23;;;1.57;;
4051;SDS011;2040;50.924;11.604;2023-09-18T15:11:17;2.60;;;1.67;;
4051;SDS011;2040;50.924;11.604;2023-09-18T15:13:44;1.63;;;1.53;;
4051;SDS011;2040;50.924;11.604;2023-09-18T15:16:10;3.80;;;1.60;;
4051;SDS011;2040;50.924;11.604;2023-09-18T15:18:35;5.60;;;1.50;;
4051;SDS011;2040;50.924;11.604;2023-09-18T15:21:02;2.63;;;1.77;;
4051;SDS011;2040;50.924;11.604;2023-09-18T15:23:27;2.83;;;1.80;;
4051;SDS011;2040;50.924;11.604;2023-09-18T15:25:55;2.33;;;1.73;;
4051;SDS011;2040;50.924;11.604;2023-09-18T15:28:21;3.27;;;1.60;;